createdAt,value
2022-10-17T00:01:46.630Z,9.90
2022-10-17T00:04:13.762Z,9.90
2022-10-17T00:06:40.810Z,9.90
2022-10-17T00:09:09.653Z,9.80
2022-10-17T00:11:36.726Z,9.80
2022-10-17T00:14:04.016Z,9.80
2022-10-17T00:16:34.475Z,9.80
2022-10-17T00:19:01.587Z,9.80
2022-10-17T00:21:28.755Z,9.80
2022-10-17T00:23:56.080Z,9.80
2022-10-17T00:26:23.816Z,9.70
2022-10-17T00:28:52.577Z,9.70
2022-10-17T00:31:21.665Z,9.60
2022-10-17T00:33:50.735Z,9.60
2022-10-17T00:36:21.287Z,9.50
2022-10-17T00:38:51.423Z,9.50
2022-10-17T00:41:20.557Z,9.50
2022-10-17T00:43:56.065Z,9.50
2022-10-17T00:46:25.340Z,9.50
2022-10-17T00:48:55.133Z,9.40
2022-10-17T00:51:32.224Z,9.40
2022-10-17T00:54:01.378Z,9.40
2022-10-17T00:56:28.592Z,9.40
2022-10-17T00:58:56.046Z,9.40
2022-10-17T01:01:23.229Z,9.50
2022-10-17T01:03:50.270Z,9.50
2022-10-17T01:06:18.434Z,9.60
2022-10-17T01:08:46.045Z,9.60
2022-10-17T01:11:40.156Z,9.70
2022-10-17T01:14:32.822Z,9.60
2022-10-17T01:17:11.969Z,9.60
2022-10-17T01:19:39.919Z,9.50
2022-10-17T01:22:11.224Z,9.60
2022-10-17T01:24:55.027Z,9.60
2022-10-17T01:27:47.674Z,9.50
2022-10-17T01:30:22.956Z,9.50
2022-10-17T01:32:54.668Z,9.50
2022-10-17T01:35:38.197Z,9.50
2022-10-17T01:38:09.146Z,9.50
2022-10-17T01:40:44.158Z,9.50
2022-10-17T01:43:31.096Z,9.50
2022-10-17T01:46:06.545Z,9.50
2022-10-17T01:48:37.632Z,9.50
2022-10-17T01:51:13.373Z,9.70
2022-10-17T01:53:46.942Z,9.80
2022-10-17T01:56:15.783Z,9.80
2022-10-17T01:58:53.104Z,9.80
2022-10-17T02:01:22.369Z,9.80
2022-10-17T02:03:51.297Z,9.80
2022-10-17T02:06:18.690Z,9.80
2022-10-17T02:08:49.011Z,9.80
2022-10-17T02:11:23.339Z,9.90
2022-10-17T02:14:13.715Z,9.90
2022-10-17T02:16:47.563Z,9.90
2022-10-17T02:19:47.017Z,9.90
2022-10-17T02:22:19.385Z,9.90
2022-10-17T02:25:09.685Z,9.90
2022-10-17T02:27:44.157Z,10.00
2022-10-17T02:30:15.794Z,9.90
2022-10-17T02:32:55.555Z,10.00
2022-10-17T02:35:25.478Z,9.90
2022-10-17T02:37:53.491Z,9.80
2022-10-17T02:40:24.482Z,9.80
2022-10-17T02:42:54.807Z,9.80
2022-10-17T02:45:25.339Z,9.80
2022-10-17T02:48:32.231Z,9.80
2022-10-17T02:51:23.458Z,9.80
2022-10-17T02:54:01.347Z,9.80
2022-10-17T02:56:33.672Z,9.90
2022-10-17T02:59:03.326Z,9.90
2022-10-17T03:01:31.099Z,9.90
2022-10-17T03:04:15.667Z,9.90
2022-10-17T03:06:43.548Z,9.90
2022-10-17T03:09:10.973Z,9.80
2022-10-17T03:11:38.445Z,9.80
2022-10-17T03:14:06.366Z,9.80
2022-10-17T03:16:33.895Z,9.80
2022-10-17T03:19:01.095Z,9.80
2022-10-17T03:21:28.326Z,9.80
2022-10-17T03:23:56.066Z,9.80
2022-10-17T03:26:23.803Z,9.80
2022-10-17T03:28:53.623Z,9.70
2022-10-17T03:31:23.102Z,9.80
2022-10-17T03:33:52.082Z,9.70
2022-10-17T03:36:20.022Z,9.70
2022-10-17T03:38:48.337Z,9.80
2022-10-17T03:41:17.323Z,9.70
2022-10-17T03:43:44.614Z,9.70
2022-10-17T03:46:12.581Z,9.70
2022-10-17T03:48:40.023Z,9.70
2022-10-17T03:51:09.543Z,9.60
2022-10-17T03:53:45.150Z,9.60
2022-10-17T03:56:13.943Z,9.60
2022-10-17T03:58:42.272Z,9.50
2022-10-17T04:01:12.580Z,9.50
2022-10-17T04:03:41.279Z,9.50
2022-10-17T04:06:10.929Z,9.50
2022-10-17T04:08:39.436Z,9.50
2022-10-17T04:11:16.069Z,9.50
2022-10-17T04:13:44.186Z,9.50
2022-10-17T04:16:15.318Z,9.50
2022-10-17T04:18:56.536Z,9.50
2022-10-17T04:21:27.650Z,9.50
2022-10-17T04:23:57.370Z,9.50
2022-10-17T04:26:41.494Z,9.50
2022-10-17T04:29:09.010Z,9.50
2022-10-17T04:31:36.158Z,9.50
2022-10-17T04:34:11.109Z,9.40
2022-10-17T04:36:38.238Z,9.40
2022-10-17T04:39:05.987Z,9.40
2022-10-17T04:41:33.341Z,9.40
2022-10-17T04:44:02.258Z,9.40
2022-10-17T04:46:34.740Z,9.40
2022-10-17T04:49:01.887Z,9.40
2022-10-17T04:51:29.849Z,9.40
2022-10-17T04:54:12.430Z,9.40
2022-10-17T04:56:42.854Z,9.40
2022-10-17T04:59:10.051Z,9.40
2022-10-17T05:01:39.494Z,9.40
2022-10-17T05:04:07.209Z,9.30
2022-10-17T05:06:34.791Z,9.30
2022-10-17T05:09:15.799Z,9.30
2022-10-17T05:11:43.764Z,9.30
2022-10-17T05:14:12.094Z,9.30
2022-10-17T05:16:39.239Z,9.30
2022-10-17T05:19:06.438Z,9.30
2022-10-17T05:21:39.911Z,9.30
2022-10-17T05:24:09.207Z,9.30
2022-10-17T05:26:36.469Z,9.30
2022-10-17T05:29:04.459Z,9.30
2022-10-17T05:31:35.128Z,9.30
2022-10-17T05:34:03.451Z,9.30
2022-10-17T05:36:33.083Z,9.30
2022-10-17T05:39:02.016Z,9.40
2022-10-17T05:41:29.910Z,9.40
2022-10-17T05:43:59.483Z,9.40
2022-10-17T05:46:39.139Z,9.40
2022-10-17T05:49:14.913Z,9.40
2022-10-17T05:51:53.958Z,9.40
2022-10-17T05:54:21.114Z,9.40
2022-10-17T05:56:53.565Z,9.50
2022-10-17T05:59:22.588Z,9.50
2022-10-17T06:01:55.754Z,9.60
2022-10-17T06:04:22.999Z,9.70
2022-10-17T06:06:50.456Z,9.70
2022-10-17T06:09:18.003Z,9.70
2022-10-17T06:11:48.235Z,9.70
2022-10-17T06:14:16.249Z,9.80
2022-10-17T06:16:43.753Z,9.90
2022-10-17T06:19:11.710Z,9.90
2022-10-17T06:21:39.073Z,10.00
2022-10-17T06:24:11.226Z,10.10
2022-10-17T06:26:41.456Z,10.10
2022-10-17T06:29:10.838Z,10.20
2022-10-17T06:31:44.178Z,10.30
2022-10-17T06:34:11.453Z,10.30
2022-10-17T06:36:39.966Z,10.40
2022-10-17T06:39:08.288Z,10.50
2022-10-17T06:41:41.713Z,10.70
2022-10-17T06:44:11.591Z,10.70
2022-10-17T06:46:59.804Z,10.80
2022-10-17T06:49:28.450Z,11.00
2022-10-17T06:52:00.477Z,11.10
2022-10-17T06:54:38.413Z,11.30
2022-10-17T06:57:05.589Z,11.50
2022-10-17T06:59:49.885Z,11.60
2022-10-17T07:02:23.757Z,12.10
2022-10-17T07:04:52.664Z,12.60
2022-10-17T07:07:19.885Z,12.70
2022-10-17T07:09:46.999Z,12.80
2022-10-17T07:12:16.180Z,12.90
2022-10-17T07:14:47.338Z,13.00
2022-10-17T07:17:14.710Z,13.10
2022-10-17T07:19:43.538Z,13.30
2022-10-17T07:22:12.153Z,13.40
2022-10-17T07:24:43.391Z,13.60
2022-10-17T07:27:17.632Z,13.80
2022-10-17T07:29:45.077Z,14.30
2022-10-17T07:32:18.968Z,14.60
2022-10-17T07:34:46.062Z,14.40
2022-10-17T07:37:13.129Z,14.40
2022-10-17T07:39:45.908Z,14.10
2022-10-17T07:42:14.612Z,14.00
2022-10-17T07:44:42.701Z,14.10
2022-10-17T07:47:10.359Z,14.10
2022-10-17T07:49:42.736Z,14.30
2022-10-17T07:52:11.850Z,14.20
2022-10-17T07:54:39.322Z,14.30
2022-10-17T07:57:07.087Z,14.40
2022-10-17T07:59:35.255Z,14.50
2022-10-17T08:02:02.812Z,14.60
2022-10-17T08:04:30.152Z,14.60
2022-10-17T08:07:11.616Z,14.50
2022-10-17T08:09:44.487Z,14.40
2022-10-17T08:12:12.028Z,14.50
2022-10-17T08:14:39.864Z,14.40
2022-10-17T08:17:07.083Z,14.40
2022-10-17T08:19:34.268Z,14.30
2022-10-17T08:22:02.228Z,14.30
2022-10-17T08:24:29.478Z,14.20
2022-10-17T08:26:58.363Z,14.40
2022-10-17T08:29:25.604Z,14.90
2022-10-17T08:31:58.519Z,15.20
2022-10-17T08:34:28.791Z,15.60
2022-10-17T08:36:55.902Z,16.10
2022-10-17T08:39:23.086Z,16.30
2022-10-17T08:41:58.005Z,16.70
2022-10-17T08:44:39.876Z,17.00
2022-10-17T08:47:12.846Z,16.90
2022-10-17T08:49:47.802Z,16.80
2022-10-17T08:52:29.720Z,16.80
2022-10-17T08:54:56.785Z,16.90
2022-10-17T08:57:23.972Z,16.70
2022-10-17T08:59:53.566Z,16.40
2022-10-17T09:02:46.837Z,16.40
2022-10-17T09:05:28.501Z,16.30
2022-10-17T09:08:02.734Z,16.20
2022-10-17T09:10:39.461Z,16.50
2022-10-17T09:13:29.866Z,16.70
2022-10-17T09:16:02.944Z,17.30
2022-10-17T09:18:36.314Z,17.90
2022-10-17T09:21:21.041Z,18.40
2022-10-17T09:23:59.546Z,19.00
2022-10-17T09:26:37.439Z,20.30
2022-10-17T09:29:32.396Z,20.90
2022-10-17T09:32:12.995Z,21.70
2022-10-17T09:34:40.156Z,22.70
2022-10-17T09:37:14.511Z,23.30
2022-10-17T09:39:42.406Z,23.80
2022-10-17T09:42:15.158Z,23.90
2022-10-17T09:44:52.550Z,24.10
2022-10-17T09:47:29.932Z,23.60
2022-10-17T09:49:57.241Z,23.50
2022-10-17T09:52:33.274Z,23.00
2022-10-17T09:55:21.248Z,23.00
2022-10-17T09:57:58.764Z,22.50
2022-10-17T10:00:45.288Z,22.20
2022-10-17T10:03:23.573Z,22.20
2022-10-17T10:06:23.003Z,22.20
2022-10-17T10:08:52.475Z,21.50
2022-10-17T10:11:25.598Z,21.40
2022-10-17T10:13:53.070Z,21.40
2022-10-17T10:16:31.736Z,21.30
2022-10-17T10:18:59.412Z,21.10
2022-10-17T10:21:27.945Z,21.20
2022-10-17T10:24:04.732Z,21.40
2022-10-17T10:26:50.666Z,21.70
2022-10-17T10:29:17.857Z,21.60
2022-10-17T10:31:45.056Z,21.50
2022-10-17T10:34:20.034Z,21.60
2022-10-17T10:36:52.233Z,21.40
2022-10-17T10:39:31.678Z,21.40
2022-10-17T10:42:00.267Z,21.70
2022-10-17T10:44:29.720Z,21.90
2022-10-17T10:47:20.064Z,22.10
2022-10-17T10:49:47.359Z,21.90
2022-10-17T10:52:26.052Z,22.20
2022-10-17T10:55:05.301Z,22.30
2022-10-17T10:57:34.955Z,22.10
2022-10-17T11:00:15.784Z,21.80
2022-10-17T11:02:55.022Z,22.00
2022-10-17T11:05:41.985Z,22.30
2022-10-17T11:08:10.177Z,22.50
2022-10-17T11:10:49.403Z,22.40
2022-10-17T11:13:23.565Z,22.10
2022-10-17T11:16:00.279Z,22.00
2022-10-17T11:18:35.292Z,22.00
2022-10-17T11:21:43.282Z,22.30
2022-10-17T11:24:25.046Z,22.70
2022-10-17T11:27:05.208Z,22.90
2022-10-17T11:29:40.453Z,22.50
2022-10-17T11:32:15.574Z,22.10
2022-10-17T11:34:47.611Z,22.20
2022-10-17T11:37:22.790Z,22.50
2022-10-17T11:39:55.354Z,22.70
2022-10-17T11:42:46.321Z,22.60
2022-10-17T11:45:19.422Z,22.70
2022-10-17T11:47:51.770Z,22.70
2022-10-17T11:53:43.410Z,23.20
2022-10-17T11:56:12.937Z,23.20
2022-10-17T11:59:00.921Z,23.20
2022-10-17T12:01:46.162Z,23.10
2022-10-17T12:04:53.187Z,22.90
2022-10-17T12:10:37.949Z,22.60
2022-10-17T12:13:29.350Z,22.50
2022-10-17T12:15:58.034Z,22.70
2022-10-17T12:18:28.372Z,22.80
2022-10-17T12:20:59.267Z,22.90
2022-10-17T12:23:31.718Z,23.00
2022-10-17T12:26:04.469Z,22.90
2022-10-17T12:28:49.101Z,22.70
2022-10-17T12:31:16.381Z,22.80
2022-10-17T12:33:49.597Z,22.80
2022-10-17T12:36:17.718Z,22.60
2022-10-17T12:38:50.080Z,22.50
2022-10-17T12:41:38.428Z,22.60
2022-10-17T12:44:27.033Z,22.60
2022-10-17T12:47:09.775Z,22.70
2022-10-17T12:49:42.327Z,22.70
2022-10-17T12:52:32.635Z,22.70
2022-10-17T12:55:18.192Z,22.80
2022-10-17T12:58:03.963Z,22.90
2022-10-17T13:00:36.829Z,22.70
2022-10-17T13:03:15.538Z,22.70
2022-10-17T13:05:56.817Z,22.60
2022-10-17T13:08:28.623Z,22.50
2022-10-17T13:10:56.769Z,22.50
2022-10-17T13:13:43.413Z,22.60
2022-10-17T13:16:28.215Z,22.70
2022-10-17T13:18:55.642Z,22.60
2022-10-17T13:21:22.764Z,22.60
2022-10-17T13:23:51.464Z,22.50
2022-10-17T13:26:22.348Z,22.50
2022-10-17T13:29:11.558Z,22.50
2022-10-17T13:31:42.492Z,22.30
2022-10-17T13:34:20.128Z,22.30
2022-10-17T13:36:51.073Z,22.30
2022-10-17T13:39:38.161Z,22.30
2022-10-17T13:42:24.882Z,22.30
2022-10-17T13:44:52.599Z,22.10
2022-10-17T13:47:22.688Z,22.10
2022-10-17T13:49:54.283Z,22.00
2022-10-17T13:52:27.291Z,21.90
2022-10-17T13:54:55.886Z,21.90
2022-10-17T13:57:25.151Z,21.90
2022-10-17T13:59:57.880Z,21.90
2022-10-17T14:02:27.745Z,21.90
2022-10-17T14:05:22.911Z,21.80
2022-10-17T14:10:40.123Z,21.70
2022-10-17T14:13:15.159Z,21.70
2022-10-17T14:15:45.797Z,21.60
2022-10-17T14:18:23.018Z,21.50
2022-10-17T14:23:43.683Z,21.50
2022-10-17T14:26:13.842Z,21.40
2022-10-17T14:28:42.913Z,21.40
2022-10-17T14:31:19.668Z,21.30
2022-10-17T14:33:50.878Z,21.30
2022-10-17T14:36:20.364Z,21.20
2022-10-17T14:38:52.062Z,21.10
2022-10-17T14:44:22.607Z,21.00
2022-10-17T14:46:55.754Z,21.00
2022-10-17T14:49:28.960Z,20.90
2022-10-17T14:52:18.174Z,20.80
2022-10-17T14:54:52.936Z,20.80
2022-10-17T14:57:29.216Z,20.60
2022-10-17T14:59:59.577Z,20.50
2022-10-17T15:02:31.288Z,20.50
2022-10-17T15:04:59.718Z,20.50
2022-10-17T15:07:27.247Z,20.50
2022-10-17T15:09:54.411Z,20.40
2022-10-17T15:12:25.925Z,20.40
2022-10-17T15:14:54.192Z,20.30
2022-10-17T15:17:26.001Z,20.30
2022-10-17T15:19:54.801Z,20.20
2022-10-17T15:22:22.076Z,20.10
2022-10-17T15:24:49.864Z,20.00
2022-10-17T15:27:18.388Z,20.00
2022-10-17T15:29:45.951Z,19.90
2022-10-17T15:32:14.186Z,19.80
2022-10-17T15:34:41.488Z,19.80
2022-10-17T15:37:18.885Z,19.70
2022-10-17T15:39:53.503Z,19.40
2022-10-17T15:42:23.023Z,19.30
2022-10-17T15:44:50.517Z,19.10
2022-10-17T15:47:21.753Z,18.90
2022-10-17T15:49:50.311Z,18.70
2022-10-17T15:52:17.423Z,18.60
2022-10-17T15:54:44.583Z,18.40
2022-10-17T15:57:18.787Z,18.30
2022-10-17T15:59:47.191Z,18.20
2022-10-17T16:02:15.867Z,18.00
2022-10-17T16:04:43.562Z,17.90
2022-10-17T16:07:11.223Z,17.80
2022-10-17T16:09:38.530Z,17.70
2022-10-17T16:12:10.933Z,17.60
2022-10-17T16:14:43.410Z,17.50
2022-10-17T16:17:15.737Z,17.40
2022-10-17T16:19:44.026Z,17.30
2022-10-17T16:22:20.035Z,17.20
2022-10-17T16:24:47.172Z,17.00
2022-10-17T16:27:14.414Z,16.90
2022-10-17T16:29:41.504Z,16.80
2022-10-17T16:32:09.750Z,16.70
2022-10-17T16:34:36.934Z,16.60
2022-10-17T16:37:03.989Z,16.50
2022-10-17T16:39:31.183Z,16.40
2022-10-17T16:41:58.705Z,16.30
2022-10-17T16:44:26.035Z,16.10
2022-10-17T16:46:53.148Z,16.00
2022-10-17T16:49:20.343Z,15.90
2022-10-17T16:51:47.515Z,15.80
2022-10-17T16:54:14.603Z,15.70
2022-10-17T16:56:42.297Z,15.60
2022-10-17T16:59:11.793Z,15.60
2022-10-17T17:01:38.905Z,15.60
2022-10-17T17:04:06.404Z,15.50
2022-10-17T17:06:33.527Z,15.50
2022-10-17T17:09:00.715Z,15.40
2022-10-17T17:11:31.344Z,15.30
2022-10-17T17:14:04.399Z,15.30
2022-10-17T17:16:34.126Z,15.20
2022-10-17T17:19:08.863Z,15.20
2022-10-17T17:21:41.346Z,15.20
2022-10-17T17:24:08.679Z,15.20
2022-10-17T17:26:36.480Z,15.20
2022-10-17T17:29:04.283Z,15.20
2022-10-17T17:31:34.210Z,15.20
2022-10-17T17:34:17.946Z,15.20
2022-10-17T17:36:49.316Z,15.20
2022-10-17T17:39:17.193Z,15.30
2022-10-17T17:41:50.045Z,15.30
2022-10-17T17:44:17.898Z,15.30
2022-10-17T17:46:46.076Z,15.30
2022-10-17T17:49:13.385Z,15.20
2022-10-17T17:51:41.903Z,15.20
2022-10-17T17:54:12.440Z,15.10
2022-10-17T17:56:40.535Z,15.00
2022-10-17T17:59:08.125Z,14.80
2022-10-17T18:01:38.365Z,14.70
2022-10-17T18:04:09.036Z,14.60
2022-10-17T18:06:38.110Z,14.50
2022-10-17T18:09:09.576Z,14.50
2022-10-17T18:11:37.793Z,14.40
2022-10-17T18:14:11.891Z,14.30
2022-10-17T18:16:39.474Z,14.30
2022-10-17T18:19:09.194Z,14.20
2022-10-17T18:21:37.307Z,14.20
2022-10-17T18:24:05.067Z,14.10
2022-10-17T18:26:32.797Z,14.10
2022-10-17T18:29:00.431Z,14.00
2022-10-17T18:31:28.984Z,14.00
2022-10-17T18:33:57.866Z,14.00
2022-10-17T18:36:37.172Z,13.90
2022-10-17T18:39:06.614Z,13.90
2022-10-17T18:41:34.514Z,13.80
2022-10-17T18:44:07.863Z,13.80
2022-10-17T18:46:40.928Z,13.80
2022-10-17T18:49:10.764Z,13.80
2022-10-17T18:51:38.220Z,13.80
2022-10-17T18:54:07.221Z,13.70
2022-10-17T18:56:34.551Z,13.70
2022-10-17T18:59:01.911Z,13.70
2022-10-17T19:01:29.136Z,13.60
2022-10-17T19:03:59.505Z,13.60
2022-10-17T19:06:32.733Z,13.50
2022-10-17T19:09:02.142Z,13.50
2022-10-17T19:11:30.735Z,13.40
2022-10-17T19:14:00.917Z,13.40
2022-10-17T19:16:36.525Z,13.30
2022-10-17T19:19:07.018Z,13.30
2022-10-17T19:21:37.357Z,13.20
2022-10-17T19:24:09.513Z,13.20
2022-10-17T19:26:38.510Z,13.10
2022-10-17T19:29:06.803Z,13.10
2022-10-17T19:31:36.543Z,13.00
2022-10-17T19:34:04.660Z,13.00
2022-10-17T19:36:34.443Z,13.00
2022-10-17T19:39:06.573Z,12.90
2022-10-17T19:41:36.563Z,12.90
2022-10-17T19:44:04.048Z,12.80
2022-10-17T19:46:33.838Z,12.80
2022-10-17T19:49:02.202Z,12.80
2022-10-17T19:51:30.272Z,12.70
2022-10-17T19:54:00.860Z,12.70
2022-10-17T19:56:31.496Z,12.70
2022-10-17T19:58:59.580Z,12.70
2022-10-17T20:01:33.104Z,12.70
2022-10-17T20:04:00.760Z,12.70
2022-10-17T20:06:28.101Z,12.70
2022-10-17T20:08:57.006Z,12.80
2022-10-17T20:11:31.860Z,12.80
2022-10-17T20:14:04.288Z,12.90
2022-10-17T20:16:35.320Z,12.90
2022-10-17T20:19:10.216Z,12.90
2022-10-17T20:21:39.817Z,12.80
2022-10-17T20:24:13.163Z,12.80
2022-10-17T20:26:40.465Z,12.70
2022-10-17T20:29:14.133Z,12.70
2022-10-17T20:31:43.120Z,12.60
2022-10-17T20:34:13.515Z,12.60
2022-10-17T20:36:43.670Z,12.60
2022-10-17T20:39:15.196Z,12.50
2022-10-17T20:41:55.892Z,12.50
2022-10-17T20:44:28.361Z,12.40
2022-10-17T20:47:02.151Z,12.30
2022-10-17T20:49:30.622Z,12.40
2022-10-17T20:52:02.181Z,12.30
2022-10-17T20:54:30.277Z,12.20
2022-10-17T20:56:59.864Z,12.10
2022-10-17T20:59:30.281Z,12.00
2022-10-17T21:01:57.754Z,11.90
2022-10-17T21:04:45.367Z,11.90
2022-10-17T21:07:13.302Z,11.80
2022-10-17T21:09:47.281Z,11.80
2022-10-17T21:12:21.721Z,11.70
2022-10-17T21:14:58.663Z,11.60
2022-10-17T21:17:25.837Z,11.50
2022-10-17T21:19:53.483Z,11.40
2022-10-17T21:22:20.599Z,11.40
2022-10-17T21:24:48.069Z,11.30
2022-10-17T21:27:18.537Z,11.30
2022-10-17T21:29:45.994Z,11.30
2022-10-17T21:32:25.139Z,11.20
2022-10-17T21:35:00.372Z,11.20
2022-10-17T21:37:27.678Z,11.20
2022-10-17T21:39:54.847Z,11.20
2022-10-17T21:42:22.482Z,11.10
2022-10-17T21:44:50.006Z,11.10
2022-10-17T21:47:17.295Z,11.00
2022-10-17T21:49:44.431Z,10.90
2022-10-17T21:52:11.545Z,10.90
2022-10-17T21:54:38.678Z,10.90
2022-10-17T21:57:06.129Z,10.90
2022-10-17T21:59:35.644Z,11.00
2022-10-17T22:02:02.944Z,11.00
2022-10-17T22:04:30.224Z,10.90
2022-10-17T22:06:57.576Z,10.90
2022-10-17T22:09:26.242Z,10.90
2022-10-17T22:11:56.371Z,10.80
2022-10-17T22:14:25.437Z,10.90
2022-10-17T22:16:53.981Z,10.80
2022-10-17T22:19:24.408Z,10.80
2022-10-17T22:21:52.462Z,10.80
2022-10-17T22:26:48.775Z,10.70
2022-10-17T22:29:16.491Z,10.60
2022-10-17T22:31:43.604Z,10.60
2022-10-17T22:34:12.862Z,10.60
2022-10-17T22:36:40.250Z,10.60
2022-10-17T22:39:07.398Z,10.50
2022-10-17T22:41:34.763Z,10.50
2022-10-17T22:44:02.002Z,10.50
2022-10-17T22:46:30.009Z,10.50
2022-10-17T22:48:57.447Z,10.40
2022-10-17T22:53:51.676Z,10.20
2022-10-17T22:56:20.937Z,10.20
2022-10-17T22:58:48.239Z,10.20
2022-10-17T23:01:18.518Z,10.20
2022-10-17T23:03:46.074Z,10.20
2022-10-17T23:06:13.520Z,10.20
2022-10-17T23:08:40.911Z,10.20
2022-10-17T23:11:08.841Z,10.10
2022-10-17T23:13:36.324Z,10.10
2022-10-17T23:16:04.244Z,10.10
2022-10-17T23:20:58.440Z,10.10
2022-10-17T23:23:25.470Z,10.10
2022-10-17T23:25:52.691Z,10.10
2022-10-17T23:28:19.796Z,10.00
2022-10-17T23:30:46.968Z,10.00
2022-10-17T23:33:14.415Z,10.00
2022-10-17T23:35:41.967Z,10.00
2022-10-17T23:38:09.895Z,10.00
2022-10-17T23:40:37.184Z,9.90
2022-10-17T23:43:05.408Z,9.90
2022-10-17T23:45:35.986Z,9.90
2022-10-17T23:48:05.332Z,9.90
2022-10-17T23:50:32.415Z,9.90
2022-10-17T23:52:59.587Z,9.90
2022-10-17T23:55:26.648Z,9.80
2022-10-17T23:57:53.761Z,9.80
